createdAt,value
2022-12-27T00:00:59.199Z,1.40
2022-12-27T00:03:27.191Z,1.63
2022-12-27T00:05:56.012Z,2.33
2022-12-27T00:08:23.829Z,1.73
2022-12-27T00:10:51.835Z,1.63
2022-12-27T00:13:22.608Z,1.58
2022-12-27T00:15:50.435Z,1.73
2022-12-27T00:18:18.386Z,1.52
2022-12-27T00:20:46.308Z,1.77
2022-12-27T00:23:14.030Z,1.73
2022-12-27T00:25:41.763Z,1.25
2022-12-27T00:28:09.790Z,1.60
2022-12-27T00:30:37.832Z,1.60
2022-12-27T00:33:05.866Z,1.52
2022-12-27T00:35:33.633Z,1.70
2022-12-27T00:38:01.318Z,2.10
2022-12-27T00:40:29.298Z,1.73
2022-12-27T00:42:57.084Z,1.67
2022-12-27T00:45:25.249Z,1.50
2022-12-27T00:47:53.119Z,1.88
2022-12-27T00:50:21.031Z,2.25
2022-12-27T00:52:49.008Z,1.80
2022-12-27T00:55:17.076Z,1.75
2022-12-27T00:57:45.164Z,2.30
2022-12-27T01:00:13.939Z,2.08
2022-12-27T01:02:42.122Z,2.20
2022-12-27T01:05:10.275Z,2.15
2022-12-27T01:07:38.089Z,2.28
2022-12-27T01:10:06.217Z,2.78
2022-12-27T01:12:35.119Z,2.58
2022-12-27T01:15:03.917Z,2.22
2022-12-27T01:17:31.794Z,2.60
2022-12-27T01:19:59.727Z,2.90
2022-12-27T01:22:28.027Z,2.40
2022-12-27T01:24:55.802Z,1.98
2022-12-27T01:27:23.832Z,2.10
2022-12-27T01:29:52.012Z,2.13
2022-12-27T01:32:19.877Z,2.15
2022-12-27T01:34:47.596Z,2.10
2022-12-27T01:37:15.358Z,1.73
2022-12-27T01:39:43.124Z,2.70
2022-12-27T01:42:37.203Z,1.90
2022-12-27T01:45:16.432Z,2.08
2022-12-27T01:48:06.139Z,2.05
2022-12-27T01:50:39.157Z,1.63
2022-12-27T01:53:09.908Z,1.83
2022-12-27T01:55:46.735Z,2.08
2022-12-27T01:58:26.540Z,2.10
2022-12-27T02:00:55.253Z,1.45
2022-12-27T02:03:31.297Z,1.13
2022-12-27T02:06:00.420Z,1.95
2022-12-27T02:08:34.051Z,1.45
2022-12-27T02:11:02.631Z,1.17
2022-12-27T02:13:33.340Z,1.70
2022-12-27T02:16:01.204Z,1.20
2022-12-27T02:18:29.163Z,1.30
2022-12-27T02:21:19.727Z,1.92
2022-12-27T02:24:09.165Z,2.40
2022-12-27T02:26:46.249Z,1.00
2022-12-27T02:29:41.839Z,1.33
2022-12-27T02:32:27.464Z,0.98
2022-12-27T02:35:10.626Z,0.93
2022-12-27T02:37:55.152Z,1.27
2022-12-27T02:40:42.885Z,1.85
2022-12-27T02:43:29.995Z,1.08
2022-12-27T02:46:36.227Z,1.13
2022-12-27T02:49:22.766Z,0.93
2022-12-27T02:52:32.220Z,1.00
2022-12-27T02:55:24.682Z,1.65
2022-12-27T02:58:37.819Z,0.95
2022-12-27T03:01:33.284Z,1.08
2022-12-27T03:04:55.163Z,1.27
2022-12-27T03:07:54.359Z,1.52
2022-12-27T03:10:48.025Z,0.88
2022-12-27T03:13:36.318Z,0.98
2022-12-27T03:16:38.115Z,0.80
2022-12-27T03:19:38.783Z,1.00
2022-12-27T03:22:26.957Z,1.17
2022-12-27T03:25:16.077Z,0.90
2022-12-27T03:27:45.429Z,1.35
2022-12-27T03:30:32.078Z,1.67
2022-12-27T03:33:15.541Z,1.13
2022-12-27T03:36:13.785Z,1.00
2022-12-27T03:38:57.339Z,1.10
2022-12-27T03:41:49.280Z,1.52
2022-12-27T03:44:26.907Z,1.25
2022-12-27T03:47:00.278Z,1.08
2022-12-27T03:49:39.465Z,1.00
2022-12-27T03:52:14.194Z,0.82
2022-12-27T03:54:43.762Z,0.90
2022-12-27T03:57:21.094Z,1.08
2022-12-27T03:59:49.259Z,0.82
2022-12-27T04:02:17.564Z,1.50
2022-12-27T04:04:45.785Z,0.93
2022-12-27T04:07:17.110Z,0.80
2022-12-27T04:10:03.479Z,0.80
2022-12-27T04:12:49.722Z,1.00
2022-12-27T04:15:35.959Z,0.90
2022-12-27T04:18:22.169Z,1.42
2022-12-27T04:21:08.325Z,1.48
2022-12-27T04:23:54.589Z,1.00
2022-12-27T04:26:40.721Z,0.95
2022-12-27T04:29:27.300Z,1.00
2022-12-27T04:32:13.738Z,0.80
2022-12-27T04:34:44.262Z,1.73
2022-12-27T04:37:18.429Z,1.27
2022-12-27T04:40:10.233Z,1.00
2022-12-27T04:42:56.552Z,1.05
2022-12-27T04:45:43.161Z,1.50
2022-12-27T04:48:33.948Z,1.85
2022-12-27T04:51:20.691Z,1.10
2022-12-27T04:54:06.829Z,1.05
2022-12-27T04:56:34.623Z,1.67
2022-12-27T04:59:21.142Z,1.13
2022-12-27T05:02:04.332Z,1.48
2022-12-27T05:04:34.423Z,1.92
2022-12-27T05:07:25.265Z,1.05
2022-12-27T05:10:11.508Z,1.73
2022-12-27T05:12:57.606Z,1.65
2022-12-27T05:15:25.779Z,1.50
2022-12-27T05:17:53.787Z,1.50
2022-12-27T05:20:21.584Z,1.85
2022-12-27T05:23:21.559Z,1.50
2022-12-27T05:25:49.290Z,1.48
2022-12-27T05:28:16.962Z,1.42
2022-12-27T05:30:48.148Z,1.58
2022-12-27T05:33:15.975Z,2.13
2022-12-27T05:35:44.020Z,1.40
2022-12-27T05:38:11.981Z,1.90
2022-12-27T05:40:40.241Z,2.33
2022-12-27T05:43:08.141Z,1.45
2022-12-27T05:45:36.056Z,1.50
2022-12-27T05:48:04.111Z,1.45
2022-12-27T05:50:32.241Z,1.90
2022-12-27T05:53:11.292Z,1.15
2022-12-27T05:55:39.080Z,1.40
2022-12-27T05:58:07.576Z,2.05
2022-12-27T06:00:35.364Z,1.83
2022-12-27T06:03:04.093Z,1.90
2022-12-27T06:05:32.028Z,1.45
2022-12-27T06:08:00.128Z,1.73
2022-12-27T06:10:28.043Z,1.80
2022-12-27T06:12:55.863Z,2.10
2022-12-27T06:15:23.886Z,1.38
2022-12-27T06:17:51.668Z,1.30
2022-12-27T06:20:19.753Z,1.55
2022-12-27T06:22:47.687Z,1.73
2022-12-27T06:25:15.797Z,1.60
2022-12-27T06:27:43.653Z,2.47
2022-12-27T06:30:12.457Z,1.45
2022-12-27T06:32:40.351Z,1.60
2022-12-27T06:35:08.660Z,1.67
2022-12-27T06:37:36.797Z,1.38
2022-12-27T06:40:05.345Z,1.60
2022-12-27T06:42:33.264Z,1.45
2022-12-27T06:45:01.272Z,1.40
2022-12-27T06:47:29.209Z,1.67
2022-12-27T06:49:56.996Z,1.52
2022-12-27T06:52:26.587Z,1.67
2022-12-27T06:54:54.786Z,1.60
2022-12-27T06:57:22.770Z,1.92
2022-12-27T06:59:54.022Z,1.90
2022-12-27T07:02:22.433Z,1.92
2022-12-27T07:04:50.330Z,1.75
2022-12-27T07:07:18.157Z,2.00
2022-12-27T07:09:46.143Z,1.77
2022-12-27T07:12:14.201Z,2.03
2022-12-27T07:14:42.083Z,1.60
2022-12-27T07:17:09.796Z,1.77
2022-12-27T07:19:37.720Z,1.80
2022-12-27T07:22:05.517Z,1.60
2022-12-27T07:24:33.578Z,1.88
2022-12-27T07:27:05.485Z,1.90
2022-12-27T07:29:33.614Z,2.67
2022-12-27T07:32:01.699Z,1.83
2022-12-27T07:34:29.635Z,1.80
2022-12-27T07:36:57.396Z,1.70
2022-12-27T07:39:25.530Z,2.28
2022-12-27T07:41:53.419Z,2.30
2022-12-27T07:44:21.316Z,2.00
2022-12-27T07:46:49.625Z,1.90
2022-12-27T07:49:18.211Z,2.53
2022-12-27T07:51:46.520Z,2.45
2022-12-27T07:54:14.331Z,2.10
2022-12-27T07:56:42.817Z,2.33
2022-12-27T07:59:13.231Z,2.30
2022-12-27T08:02:00.262Z,2.40
2022-12-27T08:04:28.453Z,2.35
2022-12-27T08:07:00.530Z,3.13
2022-12-27T08:09:31.872Z,2.63
2022-12-27T08:11:59.608Z,2.45
2022-12-27T08:14:27.514Z,3.03
2022-12-27T08:17:02.718Z,2.55
2022-12-27T08:19:30.791Z,2.72
2022-12-27T08:21:58.576Z,2.63
2022-12-27T08:24:26.492Z,2.70
2022-12-27T08:26:54.455Z,2.65
2022-12-27T08:29:22.254Z,3.20
2022-12-27T08:31:50.080Z,3.03
2022-12-27T08:34:17.968Z,3.00
2022-12-27T08:36:55.050Z,3.08
2022-12-27T08:39:24.609Z,3.22
2022-12-27T08:41:54.356Z,2.70
2022-12-27T08:44:22.629Z,2.63
2022-12-27T08:46:50.714Z,2.70
2022-12-27T08:49:19.095Z,3.00
2022-12-27T08:51:47.131Z,2.78
2022-12-27T08:54:15.201Z,3.10
2022-12-27T08:56:43.320Z,2.95
2022-12-27T08:59:11.260Z,2.75
2022-12-27T09:01:39.246Z,2.75
2022-12-27T09:04:06.973Z,2.60
2022-12-27T09:06:35.116Z,2.63
2022-12-27T09:09:03.045Z,2.67
2022-12-27T09:11:33.497Z,2.95
2022-12-27T09:14:03.693Z,3.05
2022-12-27T09:16:34.437Z,3.00
2022-12-27T09:19:02.681Z,3.40
2022-12-27T09:21:32.132Z,3.00
2022-12-27T09:24:00.131Z,3.38
2022-12-27T09:26:30.846Z,3.00
2022-12-27T09:28:59.480Z,2.92
2022-12-27T09:31:28.011Z,2.92
2022-12-27T09:33:56.827Z,3.33
2022-12-27T09:36:27.507Z,3.28
2022-12-27T09:38:56.847Z,2.40
2022-12-27T09:44:36.534Z,2.53
2022-12-27T09:47:06.053Z,2.63
2022-12-27T09:49:40.331Z,2.70
2022-12-27T09:52:29.671Z,3.70
2022-12-27T09:55:18.245Z,2.75
2022-12-27T09:57:48.117Z,4.20
2022-12-27T10:00:30.203Z,2.88
2022-12-27T10:03:06.025Z,2.72
2022-12-27T10:05:36.032Z,2.50
2022-12-27T10:08:42.232Z,2.22
2022-12-27T10:11:37.956Z,2.60
2022-12-27T10:14:19.102Z,2.58
2022-12-27T10:17:05.652Z,2.58
2022-12-27T10:19:42.097Z,3.38
2022-12-27T10:22:29.293Z,2.88
2022-12-27T10:24:59.829Z,2.13
2022-12-27T10:27:29.720Z,2.40
2022-12-27T10:29:59.770Z,2.63
2022-12-27T10:32:28.427Z,2.35
2022-12-27T10:35:02.429Z,2.35
2022-12-27T10:37:30.733Z,2.13
2022-12-27T10:40:57.578Z,2.15
2022-12-27T10:43:34.104Z,2.05
2022-12-27T10:46:33.293Z,2.10
2022-12-27T10:49:26.340Z,1.95
2022-12-27T10:51:59.813Z,2.15
2022-12-27T10:54:29.748Z,1.70
2022-12-27T10:57:16.121Z,2.40
2022-12-27T10:59:44.063Z,1.55
2022-12-27T11:02:19.605Z,1.65
2022-12-27T11:05:01.298Z,1.50
2022-12-27T11:07:31.777Z,1.48
2022-12-27T11:10:34.057Z,2.25
2022-12-27T11:13:05.031Z,1.48
2022-12-27T11:15:35.699Z,1.80
2022-12-27T11:18:11.066Z,2.60
2022-12-27T11:20:41.279Z,1.55
2022-12-27T11:23:18.415Z,1.83
2022-12-27T11:25:57.740Z,1.83
2022-12-27T11:28:34.481Z,1.98
2022-12-27T11:31:05.645Z,2.00
2022-12-27T11:33:37.715Z,1.98
2022-12-27T11:36:06.847Z,2.10
2022-12-27T11:38:36.184Z,2.50
2022-12-27T11:41:11.337Z,2.30
2022-12-27T11:44:04.337Z,2.50
2022-12-27T11:46:59.398Z,2.70
2022-12-27T11:49:37.932Z,2.20
2022-12-27T11:52:20.717Z,2.38
2022-12-27T11:55:19.407Z,2.25
2022-12-27T11:58:06.964Z,2.45
2022-12-27T12:00:46.987Z,2.28
2022-12-27T12:03:44.581Z,2.28
2022-12-27T12:06:21.867Z,2.67
2022-12-27T12:09:11.553Z,2.60
2022-12-27T12:12:15.278Z,2.85
2022-12-27T12:15:00.448Z,2.70
2022-12-27T12:17:53.185Z,2.80
2022-12-27T12:20:30.039Z,2.60
2022-12-27T12:23:14.317Z,2.90
2022-12-27T12:26:13.601Z,2.75
2022-12-27T12:29:26.518Z,2.80
2022-12-27T12:32:28.618Z,2.88
2022-12-27T12:37:39.921Z,3.25
2022-12-27T12:40:48.810Z,2.80
2022-12-27T12:43:19.357Z,2.58
2022-12-27T12:46:03.524Z,2.85
2022-12-27T12:48:34.587Z,2.53
2022-12-27T12:51:39.941Z,3.35
2022-12-27T12:54:25.681Z,2.80
2022-12-27T12:57:11.720Z,3.30
2022-12-27T13:00:09.355Z,3.30
2022-12-27T13:02:50.048Z,3.67
2022-12-27T13:05:31.619Z,4.32
2022-12-27T13:08:09.615Z,3.22
2022-12-27T13:10:43.317Z,3.78
2022-12-27T13:13:26.071Z,3.20
2022-12-27T13:16:15.273Z,3.53
2022-12-27T13:19:02.171Z,3.80
2022-12-27T13:22:03.712Z,3.10
2022-12-27T13:24:59.424Z,3.63
2022-12-27T13:28:06.202Z,3.00
2022-12-27T13:30:42.175Z,3.08
2022-12-27T13:33:29.204Z,2.78
2022-12-27T13:36:25.207Z,3.88
2022-12-27T13:39:22.671Z,2.72
2022-12-27T13:41:53.435Z,2.67
2022-12-27T13:44:24.084Z,2.58
2022-12-27T13:47:21.103Z,2.33
2022-12-27T13:50:10.224Z,2.55
2022-12-27T13:52:47.407Z,2.53
2022-12-27T13:55:55.173Z,2.30
2022-12-27T13:58:26.516Z,2.80
2022-12-27T14:01:46.308Z,2.80
2022-12-27T14:04:59.746Z,2.88
2022-12-27T14:07:46.667Z,2.53
2022-12-27T14:10:37.494Z,2.90
2022-12-27T14:13:10.421Z,2.72
2022-12-27T14:15:38.292Z,3.00
2022-12-27T14:18:31.073Z,2.50
2022-12-27T14:21:05.279Z,3.10
2022-12-27T14:23:39.169Z,2.80
2022-12-27T14:26:15.886Z,3.10
2022-12-27T14:29:02.462Z,3.08
2022-12-27T14:31:35.912Z,2.65
2022-12-27T14:34:09.408Z,2.63
2022-12-27T14:36:59.583Z,2.83
2022-12-27T14:39:46.039Z,3.28
2022-12-27T14:43:00.156Z,3.50
2022-12-27T14:45:58.899Z,2.83
2022-12-27T14:48:35.730Z,3.05
2022-12-27T14:51:59.792Z,2.75
2022-12-27T14:55:08.833Z,2.67
2022-12-27T14:57:52.143Z,2.92
2022-12-27T15:00:22.738Z,2.80
2022-12-27T15:03:18.690Z,2.50
2022-12-27T15:06:04.866Z,3.10
2022-12-27T15:08:43.617Z,2.58
2022-12-27T15:11:32.835Z,3.00
2022-12-27T15:14:06.593Z,2.65
2022-12-27T15:17:02.257Z,2.67
2022-12-27T15:20:03.697Z,2.80
2022-12-27T15:22:53.942Z,2.65
2022-12-27T15:26:15.549Z,3.05
2022-12-27T15:29:20.940Z,2.33
2022-12-27T15:32:03.374Z,2.40
2022-12-27T15:34:43.565Z,2.40
2022-12-27T15:37:50.735Z,2.33
2022-12-27T15:40:34.319Z,2.38
2022-12-27T15:43:29.565Z,2.22
2022-12-27T15:46:54.254Z,3.35
2022-12-27T15:49:46.030Z,1.80
2022-12-27T15:52:33.007Z,1.90
2022-12-27T15:55:07.273Z,1.98
2022-12-27T15:58:02.699Z,1.95
2022-12-27T16:00:34.405Z,1.92
2022-12-27T16:05:44.959Z,2.10
2022-12-27T16:08:24.703Z,1.90
2022-12-27T16:10:53.023Z,2.00
2022-12-27T16:13:42.382Z,2.80
2022-12-27T16:16:32.806Z,2.10
2022-12-27T16:19:28.540Z,2.28
2022-12-27T16:21:56.456Z,2.10
2022-12-27T16:24:28.256Z,2.50
2022-12-27T16:29:38.043Z,3.47
2022-12-27T16:32:17.328Z,2.95
2022-12-27T16:34:47.167Z,2.88
2022-12-27T16:37:24.153Z,2.58
2022-12-27T16:40:27.096Z,2.53
2022-12-27T16:42:57.695Z,2.00
2022-12-27T16:45:40.435Z,1.80
2022-12-27T16:48:50.002Z,1.75
2022-12-27T16:51:39.268Z,2.10
2022-12-27T16:54:28.327Z,1.80
2022-12-27T16:57:25.101Z,1.77
2022-12-27T16:59:56.901Z,1.58
2022-12-27T17:02:46.242Z,1.70
2022-12-27T17:05:17.097Z,1.25
2022-12-27T17:07:54.130Z,1.45
2022-12-27T17:10:35.025Z,1.45
2022-12-27T17:13:14.881Z,1.30
2022-12-27T17:15:54.965Z,1.20
2022-12-27T17:18:37.671Z,1.23
2022-12-27T17:21:33.367Z,1.70
2022-12-27T17:24:19.693Z,1.30
2022-12-27T17:27:24.007Z,1.23
2022-12-27T17:30:07.060Z,1.67
2022-12-27T17:33:32.690Z,1.45
2022-12-27T17:36:22.149Z,1.40
2022-12-27T17:39:20.545Z,1.90
2022-12-27T17:42:12.838Z,2.13
2022-12-27T17:45:00.856Z,2.50
2022-12-27T17:47:49.682Z,2.60
2022-12-27T17:50:24.449Z,2.75
2022-12-27T17:53:36.231Z,3.80
2022-12-27T17:56:40.442Z,3.42
2022-12-27T17:59:11.861Z,2.90
2022-12-27T18:01:50.038Z,2.00
2022-12-27T18:04:32.643Z,1.52
2022-12-27T18:07:06.282Z,1.67
2022-12-27T18:09:46.847Z,2.10
2022-12-27T18:12:30.221Z,1.55
2022-12-27T18:15:15.699Z,2.05
2022-12-27T18:17:47.922Z,2.33
2022-12-27T18:20:30.814Z,1.80
2022-12-27T18:23:09.178Z,1.77
2022-12-27T18:25:45.928Z,1.50
2022-12-27T18:28:20.018Z,1.20
2022-12-27T18:30:54.224Z,1.85
2022-12-27T18:33:31.675Z,1.77
2022-12-27T18:36:01.015Z,1.88
2022-12-27T18:38:41.077Z,1.40
2022-12-27T18:41:11.726Z,1.25
2022-12-27T18:43:47.784Z,1.73
2022-12-27T18:46:27.492Z,1.20
2022-12-27T18:48:55.365Z,1.52
2022-12-27T18:51:36.751Z,1.30
2022-12-27T18:54:22.404Z,1.55
2022-12-27T18:56:53.915Z,1.50
2022-12-27T18:59:33.178Z,1.95
2022-12-27T19:02:03.934Z,1.50
2022-12-27T19:04:33.420Z,1.47
2022-12-27T19:07:16.807Z,1.25
2022-12-27T19:09:51.487Z,1.52
2022-12-27T19:12:38.724Z,1.63
2022-12-27T19:15:18.908Z,1.30
2022-12-27T19:17:49.495Z,1.52
2022-12-27T19:20:27.641Z,1.52
2022-12-27T19:22:57.718Z,1.77
2022-12-27T19:25:28.396Z,1.60
2022-12-27T19:28:22.961Z,1.70
2022-12-27T19:31:07.226Z,1.60
2022-12-27T19:33:36.255Z,1.73
2022-12-27T19:36:09.883Z,1.27
2022-12-27T19:38:44.104Z,1.60
2022-12-27T19:41:15.763Z,1.65
2022-12-27T19:43:46.109Z,1.30
2022-12-27T19:46:14.974Z,2.10
2022-12-27T19:48:44.082Z,1.77
2022-12-27T19:51:16.866Z,1.73
2022-12-27T19:53:48.960Z,1.80
2022-12-27T19:56:18.767Z,1.80
2022-12-27T19:58:47.296Z,1.73
2022-12-27T20:01:15.297Z,1.90
2022-12-27T20:03:44.243Z,1.83
2022-12-27T20:06:23.006Z,2.47
2022-12-27T20:08:52.984Z,2.58
2022-12-27T20:11:22.727Z,1.80
2022-12-27T20:13:50.928Z,2.38
2022-12-27T20:16:20.218Z,2.28
2022-12-27T20:18:48.392Z,2.20
2022-12-27T20:21:18.273Z,2.60
2022-12-27T20:23:46.648Z,2.10
2022-12-27T20:26:19.239Z,3.38
2022-12-27T20:28:47.569Z,2.10
2022-12-27T20:31:17.819Z,1.98
2022-12-27T20:33:45.928Z,1.92
2022-12-27T20:36:13.771Z,2.08
2022-12-27T20:38:41.819Z,2.53
2022-12-27T20:41:15.480Z,2.08
2022-12-27T20:43:43.846Z,2.10
2022-12-27T20:46:14.390Z,2.90
2022-12-27T20:48:44.547Z,2.50
2022-12-27T20:51:24.062Z,2.40
2022-12-27T20:53:56.808Z,2.17
2022-12-27T20:56:25.537Z,1.80
2022-12-27T20:58:53.428Z,1.88
2022-12-27T21:01:23.265Z,1.80
2022-12-27T21:03:51.310Z,2.00
2022-12-27T21:06:24.034Z,2.25
2022-12-27T21:08:56.638Z,1.92
2022-12-27T21:11:27.641Z,2.00
2022-12-27T21:13:55.885Z,2.13
2022-12-27T21:16:26.246Z,2.40
2022-12-27T21:18:54.497Z,2.13
2022-12-27T21:21:27.683Z,2.08
2022-12-27T21:23:58.049Z,2.22
2022-12-27T21:26:35.719Z,1.77
2022-12-27T21:29:06.084Z,2.15
2022-12-27T21:31:34.661Z,2.05
2022-12-27T21:34:02.709Z,2.13
2022-12-27T21:36:32.228Z,2.03
2022-12-27T21:39:00.137Z,2.00
2022-12-27T21:41:30.700Z,2.40
2022-12-27T21:43:58.464Z,1.60
2022-12-27T21:46:29.905Z,1.70
2022-12-27T21:49:00.304Z,1.60
2022-12-27T21:51:29.362Z,1.42
2022-12-27T21:53:57.525Z,1.80
2022-12-27T21:56:25.832Z,1.58
2022-12-27T21:58:57.523Z,1.55
2022-12-27T22:03:58.742Z,1.48
2022-12-27T22:06:28.037Z,1.30
2022-12-27T22:08:59.124Z,1.27
2022-12-27T22:11:28.056Z,1.73
2022-12-27T22:13:56.512Z,2.20
2022-12-27T22:16:30.818Z,1.70
2022-12-27T22:18:59.336Z,2.08
2022-12-27T22:21:47.078Z,2.28
2022-12-27T22:24:19.577Z,2.00
2022-12-27T22:26:48.845Z,2.92
2022-12-27T22:29:17.930Z,1.88
2022-12-27T22:31:46.664Z,2.30
2022-12-27T22:34:14.669Z,2.63
2022-12-27T22:36:43.614Z,1.60
2022-12-27T22:39:11.670Z,1.77
2022-12-27T22:41:39.686Z,1.73
2022-12-27T22:44:13.579Z,1.63
2022-12-27T22:47:15.806Z,1.92
2022-12-27T22:49:30.397Z,1.60
2022-12-27T22:51:58.279Z,1.67
2022-12-27T22:55:05.443Z,1.88
2022-12-27T22:57:13.829Z,1.70
2022-12-27T22:59:41.676Z,1.30
2022-12-27T23:02:09.643Z,1.33
2022-12-27T23:04:37.501Z,1.23
2022-12-27T23:07:05.334Z,1.20
2022-12-27T23:09:37.851Z,1.38
2022-12-27T23:12:10.782Z,1.40
2022-12-27T23:14:38.999Z,1.40
2022-12-27T23:17:06.838Z,1.45
2022-12-27T23:19:34.643Z,1.42
2022-12-27T23:22:02.469Z,1.92
2022-12-27T23:24:30.216Z,1.20
2022-12-27T23:26:58.185Z,1.55
2022-12-27T23:29:31.382Z,1.50
2022-12-27T23:31:59.305Z,1.30
2022-12-27T23:34:28.935Z,1.50
2022-12-27T23:36:58.322Z,1.50
2022-12-27T23:39:26.643Z,1.50
2022-12-27T23:41:54.648Z,1.60
2022-12-27T23:44:34.505Z,1.70
2022-12-27T23:47:06.252Z,1.67
2022-12-27T23:49:34.822Z,1.90
2022-12-27T23:52:03.097Z,1.65
2022-12-27T23:54:31.432Z,1.65
2022-12-27T23:57:22.523Z,1.30
2022-12-27T23:59:47.089Z,1.33
